Time;durP1;ratioP1;P1;durP2;ratioP2;P2;SDS_P1;SDS_P2;PMS_P1;PMS_P2;Temp;Humidity;BMP_temperature;BMP_pressure;BME280_temperature;BME280_humidity;BME280_pressure;Samples;Min_cycle;Max_cycle;Signal;HPM_P1;HPM_P2
2021/08/11 00:01:15;;;;;;;4.57;2.70;;;;;;;;;;8229898;28;20049;-71
2021/08/11 00:05:20;;;;;;;5.63;3.15;;;;;;;;;;8225626;28;20488;-71
2021/08/11 00:09:25;;;;;;;5.40;3.13;;;;;;;;;;8229646;28;20463;-71
2021/08/11 00:13:30;;;;;;;8.73;2.95;;;;;;;;;;8229983;28;20479;-71
2021/08/11 00:17:35;;;;;;;6.28;2.70;;;;;;;;;;8230122;28;20338;-72
2021/08/11 00:21:41;;;;;;;6.40;3.60;;;;;;;;;;8230078;28;20479;-72
2021/08/11 00:25:46;;;;;;;13.05;3.50;;;;;;;;;;8244976;28;20499;-71
2021/08/11 00:29:51;;;;;;;8.52;2.75;;;;;;;;;;8230107;28;20636;-71
2021/08/11 00:33:57;;;;;;;9.82;3.50;;;;;;;;;;8230011;28;20487;-72
2021/08/11 00:38:02;;;;;;;6.38;3.15;;;;;;;;;;8229736;28;20411;-72
2021/08/11 00:42:08;;;;;;;4.65;2.70;;;;;;;;;;8229040;28;20329;-72
2021/08/11 00:46:14;;;;;;;5.85;3.28;;;;;;;;;;8227163;28;20456;-73
2021/08/11 00:50:21;;;;;;;5.57;2.83;;;;;;;;;;8229235;28;20560;-72
2021/08/11 00:54:28;;;;;;;;;;;;;;;;;;8211216;28;20479;-72
2021/08/11 00:58:37;;;;;;;5.40;2.80;;;;;;;;;;8211530;28;20259;-72
2021/08/11 01:02:45;;;;;;;5.88;3.10;;;;;;;;;;8211944;28;20368;-72
2021/08/11 01:06:55;;;;;;;6.40;3.85;;;;;;;;;;8242774;28;20322;-71
2021/08/11 01:11:01;;;;;;;6.47;3.03;;;;;;;;;;8226836;28;20350;-72
2021/08/11 01:15:08;;;;;;;6.05;2.70;;;;;;;;;;8227124;28;20360;-73
2021/08/11 01:19:25;;;;;;;4.25;3.15;;;;;;;;;;8226906;28;20037;-71
2021/08/11 01:23:44;;;;;;;5.05;3.08;;;;;;;;;;8241834;28;20049;-72
2021/08/11 01:28:17;;;;;;;8.93;3.58;;;;;;;;;;8211098;28;20045;-72
2021/08/11 01:33:00;;;;;;;8.25;3.50;;;;;;;;;;8225737;28;20061;-72
2021/08/11 01:37:10;;;;;;;5.25;3.58;;;;;;;;;;8225389;28;20488;-71
2021/08/11 01:41:17;;;;;;;4.70;2.90;;;;;;;;;;8225768;28;20046;-72
2021/08/11 01:45:29;;;;;;;8.48;3.45;;;;;;;;;;8209389;28;20042;-71
2021/08/11 01:49:37;;;;;;;6.80;3.03;;;;;;;;;;8210775;28;20349;-71
2021/08/11 01:53:43;;;;;;;4.55;3.05;;;;;;;;;;8224960;28;20440;-71
2021/08/11 01:57:53;;;;;;;4.35;2.58;;;;;;;;;;8242119;28;20361;-72
2021/08/11 02:02:05;;;;;;;9.93;3.30;;;;;;;;;;8225803;28;20476;-71
2021/08/11 02:06:10;;;;;;;5.63;3.50;;;;;;;;;;8224539;28;20404;-71
2021/08/11 02:10:20;;;;;;;5.50;3.60;;;;;;;;;;8209218;28;20479;-71
2021/08/11 02:14:26;;;;;;;8.55;3.17;;;;;;;;;;8224968;28;20408;-72
2021/08/11 02:18:31;;;;;;;4.25;2.78;;;;;;;;;;8239984;28;20368;-71
2021/08/11 02:22:38;;;;;;;8.27;3.67;;;;;;;;;;8207584;28;20412;-71
2021/08/11 02:27:19;;;;;;;5.43;3.03;;;;;;;;;;8224801;28;20325;-71
2021/08/11 02:32:05;;;;;;;8.18;3.70;;;;;;;;;;8205127;28;20360;-72
2021/08/11 02:36:39;;;;;;;5.22;3.10;;;;;;;;;;8223673;28;20412;-71
2021/08/11 02:41:35;;;;;;;5.55;3.13;;;;;;;;;;8223819;28;20360;-72
2021/08/11 02:45:51;;;;;;;5.32;3.17;;;;;;;;;;8225811;28;20049;-71
2021/08/11 02:49:57;;;;;;;6.88;2.97;;;;;;;;;;8240345;28;20064;-72
2021/08/11 02:54:08;;;;;;;3.50;2.78;;;;;;;;;;8208779;28;20342;-71
2021/08/11 02:58:17;;;;;;;10.38;3.22;;;;;;;;;;8239005;28;20133;-71
2021/08/11 03:02:23;;;;;;;6.35;3.00;;;;;;;;;;8223910;28;20377;-72
2021/08/11 03:06:29;;;;;;;8.73;3.35;;;;;;;;;;8239419;28;20472;-71
2021/08/11 03:10:38;;;;;;;7.80;3.35;;;;;;;;;;8240699;28;20340;-71
2021/08/11 03:14:45;;;;;;;5.38;3.05;;;;;;;;;;8239202;28;20494;-72
2021/08/11 03:18:53;;;;;;;12.00;2.88;;;;;;;;;;8239109;28;20354;-71
2021/08/11 03:22:58;;;;;;;6.95;3.20;;;;;;;;;;8207871;28;20045;-71
2021/08/11 03:27:05;;;;;;;4.95;2.40;;;;;;;;;;8206732;28;20079;-71
2021/08/11 03:31:10;;;;;;;5.03;2.78;;;;;;;;;;8240850;28;20472;-71
2021/08/11 03:35:28;;;;;;;5.60;2.67;;;;;;;;;;8230386;28;20377;-72
2021/08/11 03:39:59;;;;;;;4.32;2.83;;;;;;;;;;8229953;28;20456;-71
2021/08/11 03:44:05;;;;;;;12.57;2.80;;;;;;;;;;8229868;28;20060;-72
2021/08/11 03:48:14;;;;;;;6.30;2.83;;;;;;;;;;8229841;28;20076;-71
2021/08/11 03:52:20;;;;;;;7.35;3.13;;;;;;;;;;8245278;28;20461;-71
2021/08/11 03:56:26;;;;;;;8.45;3.50;;;;;;;;;;8229224;28;20045;-71
2021/08/11 04:00:32;;;;;;;4.75;2.95;;;;;;;;;;8213195;28;20476;-71
2021/08/11 04:04:37;;;;;;;4.45;3.20;;;;;;;;;;8230386;28;20507;-72
2021/08/11 04:08:42;;;;;;;12.75;4.32;;;;;;;;;;8228621;28;20041;-71
2021/08/11 04:12:47;;;;;;;19.95;4.32;;;;;;;;;;8230353;28;20041;-72
2021/08/11 04:16:53;;;;;;;10.65;4.85;;;;;;;;;;8229690;28;20468;-71
2021/08/11 04:20:59;;;;;;;11.60;5.45;;;;;;;;;;8185785;28;20167;-72
2021/08/11 04:25:15;;;;;;;13.77;4.95;;;;;;;;;;8262375;28;20486;-72
2021/08/11 04:29:20;;;;;;;14.40;4.80;;;;;;;;;;8261160;28;20329;-71
2021/08/11 04:33:26;;;;;;;18.25;4.18;;;;;;;;;;8260434;28;20407;-72
2021/08/11 04:37:31;;;;;;;13.73;4.28;;;;;;;;;;8260703;28;20484;-72
2021/08/11 04:41:36;;;;;;;11.30;4.60;;;;;;;;;;8262156;28;20460;-72
2021/08/11 04:45:43;;;;;;;11.68;4.50;;;;;;;;;;8259685;28;20360;-71
2021/08/11 04:49:48;;;;;;;7.15;4.20;;;;;;;;;;8260293;28;20525;-71
2021/08/11 04:53:53;;;;;;;7.45;4.25;;;;;;;;;;8261412;28;20441;-71
2021/08/11 04:57:58;;;;;;;9.85;4.88;;;;;;;;;;8261367;28;20479;-71
2021/08/11 05:02:04;;;;;;;15.93;4.40;;;;;;;;;;8263143;28;20468;-72
2021/08/11 05:06:10;;;;;;;12.95;4.65;;;;;;;;;;8262730;28;20369;-71
2021/08/11 05:10:18;;;;;;;12.32;4.32;;;;;;;;;;8261611;28;20498;-71
2021/08/11 05:14:22;;;;;;;11.77;4.47;;;;;;;;;;8262988;28;20049;-71
2021/08/11 05:18:29;;;;;;;9.60;4.68;;;;;;;;;;8262463;28;20357;-71
2021/08/11 05:22:34;;;;;;;8.73;4.95;;;;;;;;;;8260614;28;20045;-71
2021/08/11 05:26:45;;;;;;;11.57;5.57;;;;;;;;;;8259066;28;20630;-71
2021/08/11 05:30:50;;;;;;;10.30;5.82;;;;;;;;;;8245500;28;20326;-71
2021/08/11 05:34:55;;;;;;;8.68;5.90;;;;;;;;;;8260870;28;20041;-71
2021/08/11 05:39:00;;;;;;;12.35;7.00;;;;;;;;;;8259843;28;20483;-71
2021/08/11 05:43:05;;;;;;;13.23;6.70;;;;;;;;;;8260472;28;20347;-71
2021/08/11 05:47:14;;;;;;;11.38;6.40;;;;;;;;;;8259295;28;20352;-71
2021/08/11 05:51:19;;;;;;;13.27;7.55;;;;;;;;;;8259592;28;20063;-71
2021/08/11 05:55:24;;;;;;;9.65;5.95;;;;;;;;;;8256621;28;20357;-71
2021/08/11 05:59:30;;;;;;;8.95;5.22;;;;;;;;;;8259097;28;20456;-71
2021/08/11 06:03:35;;;;;;;11.60;6.70;;;;;;;;;;8259671;28;20106;-71
2021/08/11 06:07:48;;;;;;;13.40;6.00;;;;;;;;;;8241136;28;20048;-71
2021/08/11 06:11:53;;;;;;;8.82;5.20;;;;;;;;;;8259077;28;20490;-71
2021/08/11 06:15:59;;;;;;;9.18;4.70;;;;;;;;;;8256506;28;20049;-72
2021/08/11 06:20:06;;;;;;;8.40;4.32;;;;;;;;;;8240384;28;20368;-71
2021/08/11 06:24:11;;;;;;;6.70;4.30;;;;;;;;;;8259414;28;20045;-71
2021/08/11 06:28:16;;;;;;;9.27;3.88;;;;;;;;;;8258304;28;20079;-71
2021/08/11 06:32:21;;;;;;;6.22;3.42;;;;;;;;;;8256070;28;20515;-71
2021/08/11 06:36:26;;;;;;;8.73;3.00;;;;;;;;;;8258107;28;20361;-71
2021/08/11 06:40:37;;;;;;;4.68;2.75;;;;;;;;;;8256880;28;20349;-71
2021/08/11 06:44:42;;;;;;;8.43;3.25;;;;;;;;;;8256905;28;20480;-70
2021/08/11 06:48:47;;;;;;;6.55;3.20;;;;;;;;;;8256269;28;20525;-72
2021/08/11 06:52:53;;;;;;;7.75;3.10;;;;;;;;;;8257342;28;20357;-71
2021/08/11 06:56:58;;;;;;;4.70;2.88;;;;;;;;;;8257830;28;20053;-71
2021/08/11 07:01:05;;;;;;;5.95;3.00;;;;;;;;;;8256994;28;20354;-72
2021/08/11 07:05:11;;;;;;;6.22;2.90;;;;;;;;;;8256087;28;20360;-72
2021/08/11 07:09:21;;;;;;;4.50;2.78;;;;;;;;;;8257621;28;20045;-71
2021/08/11 07:13:27;;;;;;;4.63;2.70;;;;;;;;;;8257282;28;20568;-72
2021/08/11 07:17:32;;;;;;;3.75;2.30;;;;;;;;;;8257973;28;20491;-71
2021/08/11 07:21:39;;;;;;;3.20;2.10;;;;;;;;;;8257036;28;20115;-72
2021/08/11 07:25:44;;;;;;;7.25;2.20;;;;;;;;;;8257501;28;20464;-71
2021/08/11 07:29:49;;;;;;;5.00;2.22;;;;;;;;;;8256419;28;20628;-71
2021/08/11 07:33:54;;;;;;;2.38;1.60;;;;;;;;;;8256941;28;20387;-71
2021/08/11 07:38:01;;;;;;;3.67;1.40;;;;;;;;;;8258180;28;20437;-71
2021/08/11 07:42:07;;;;;;;3.73;1.67;;;;;;;;;;8239330;28;20491;-72
2021/08/11 07:46:13;;;;;;;3.78;1.10;;;;;;;;;;8255524;28;20353;-71
2021/08/11 07:50:19;;;;;;;5.30;1.83;;;;;;;;;;8257276;28;20464;-71
2021/08/11 07:54:24;;;;;;;4.05;1.60;;;;;;;;;;8255275;28;20090;-71
2021/08/11 07:58:30;;;;;;;3.67;1.45;;;;;;;;;;8255838;28;20356;-71
2021/08/11 08:02:35;;;;;;;2.97;1.55;;;;;;;;;;8255800;28;20387;-71
2021/08/11 08:06:41;;;;;;;4.10;2.00;;;;;;;;;;8240579;28;20529;-71
2021/08/11 08:10:47;;;;;;;1.27;1.00;;;;;;;;;;8259967;28;20061;-72
2021/08/11 08:14:52;;;;;;;2.67;1.50;;;;;;;;;;8256300;28;20049;-71
2021/08/11 08:18:57;;;;;;;2.85;1.33;;;;;;;;;;8257255;28;20371;-72
2021/08/11 08:23:02;;;;;;;3.35;1.42;;;;;;;;;;8247319;28;20045;-71
2021/08/11 08:27:09;;;;;;;6.10;1.58;;;;;;;;;;8261613;28;20041;-71
2021/08/11 08:31:15;;;;;;;3.58;1.95;;;;;;;;;;8243180;28;20486;-71
2021/08/11 08:35:20;;;;;;;7.25;1.50;;;;;;;;;;8258837;28;20415;-71
2021/08/11 08:39:25;;;;;;;2.05;1.48;;;;;;;;;;8261963;28;20068;-71
2021/08/11 08:43:31;;;;;;;4.57;1.48;;;;;;;;;;8263510;28;20464;-71
2021/08/11 08:47:40;;;;;;;2.10;1.30;;;;;;;;;;8260257;28;20045;-71
2021/08/11 08:51:51;;;;;;;8.13;1.67;;;;;;;;;;8262671;28;20417;-70
2021/08/11 08:55:55;;;;;;;4.57;1.65;;;;;;;;;;8242729;28;20079;-77
2021/08/11 09:00:00;;;;;;;3.03;1.63;;;;;;;;;;8261034;28;20363;-71
2021/08/11 09:04:07;;;;;;;2.57;1.50;;;;;;;;;;8261276;28;20436;-71
2021/08/11 09:08:11;;;;;;;1.95;1.48;;;;;;;;;;8259226;28;20775;-71
2021/08/11 09:12:19;;;;;;;1.92;1.05;;;;;;;;;;8260380;28;20538;-72
2021/08/11 09:16:25;;;;;;;4.10;1.90;;;;;;;;;;8250493;28;20487;-72
2021/08/11 09:20:30;;;;;;;4.00;1.75;;;;;;;;;;8227331;28;20456;-71
2021/08/11 09:24:38;;;;;;;3.63;1.48;;;;;;;;;;8224583;28;20368;-72
2021/08/11 09:28:48;;;;;;;3.17;1.55;;;;;;;;;;8229525;28;20326;-72
2021/08/11 09:33:01;;;;;;;3.97;1.70;;;;;;;;;;8208812;28;20480;-72
2021/08/11 09:37:06;;;;;;;3.20;1.55;;;;;;;;;;8224905;28;20464;-72
2021/08/11 09:41:11;;;;;;;4.57;1.70;;;;;;;;;;8227455;28;20519;-72
2021/08/11 09:45:17;;;;;;;4.97;2.00;;;;;;;;;;8227804;28;20052;-72
2021/08/11 09:49:25;;;;;;;2.63;1.65;;;;;;;;;;8227884;28;20060;-71
2021/08/11 09:53:30;;;;;;;9.65;1.80;;;;;;;;;;8209737;28;20079;-72
2021/08/11 09:57:35;;;;;;;4.68;1.65;;;;;;;;;;8225105;28;20359;-71
2021/08/11 10:01:40;;;;;;;2.58;1.67;;;;;;;;;;8225867;28;20399;-72
2021/08/11 10:05:46;;;;;;;7.70;2.00;;;;;;;;;;8229094;28;20456;-72
2021/08/11 10:10:09;;;;;;;3.53;1.67;;;;;;;;;;8209947;28;20457;-71
2021/08/11 10:14:16;;;;;;;3.10;1.30;;;;;;;;;;8227387;28;20428;-72
2021/08/11 10:18:27;;;;;;;3.92;1.67;;;;;;;;;;8249972;28;20463;-71
2021/08/11 10:22:33;;;;;;;6.50;1.85;;;;;;;;;;8242032;28;20395;-71
2021/08/11 10:26:38;;;;;;;5.43;1.50;;;;;;;;;;8240394;28;20349;-71
2021/08/11 10:30:44;;;;;;;2.92;1.65;;;;;;;;;;8242578;28;20486;-72
2021/08/11 10:34:53;;;;;;;3.70;1.63;;;;;;;;;;8273882;28;20363;-72
2021/08/11 10:39:02;;;;;;;6.20;1.83;;;;;;;;;;8224321;28;20372;-72
2021/08/11 10:43:07;;;;;;;2.53;1.63;;;;;;;;;;8258292;28;20474;-72
2021/08/11 10:47:13;;;;;;;2.83;1.50;;;;;;;;;;8240105;28;20375;-72
2021/08/11 10:51:40;;;;;;;2.78;1.50;;;;;;;;;;8240004;28;20489;-71
2021/08/11 10:55:49;;;;;;;2.75;1.52;;;;;;;;;;8257751;28;20060;-70
2021/08/11 10:59:55;;;;;;;1.85;1.38;;;;;;;;;;8239779;28;20376;-71
2021/08/11 11:04:03;;;;;;;5.07;1.60;;;;;;;;;;8256044;28;20041;-71
2021/08/11 11:08:12;;;;;;;3.63;1.33;;;;;;;;;;8239882;28;20360;-72
2021/08/11 11:12:17;;;;;;;4.15;1.55;;;;;;;;;;8256677;28;20471;-71
2021/08/11 11:16:23;;;;;;;2.22;1.48;;;;;;;;;;8256838;28;20467;-73
2021/08/11 11:20:28;;;;;;;2.97;1.70;;;;;;;;;;8257481;28;20464;-72
2021/08/11 11:24:51;;;;;;;3.53;1.60;;;;;;;;;;8260102;28;20451;-71
2021/08/11 11:29:11;;;;;;;2.40;1.65;;;;;;;;;;8240043;28;20336;-71
2021/08/11 11:33:18;;;;;;;3.75;1.42;;;;;;;;;;8257249;28;20472;-72
2021/08/11 11:37:26;;;;;;;4.63;1.60;;;;;;;;;;8259687;28;20502;-71
2021/08/11 11:41:31;;;;;;;3.67;1.30;;;;;;;;;;8255642;28;20364;-71
2021/08/11 11:45:45;;;;;;;2.60;1.27;;;;;;;;;;8255787;28;20458;-69
2021/08/11 11:50:19;;;;;;;2.10;1.55;;;;;;;;;;8256653;28;20384;-70
2021/08/11 11:54:25;;;;;;;2.28;1.50;;;;;;;;;;8242414;28;20456;-71
2021/08/11 11:58:32;;;;;;;3.10;1.92;;;;;;;;;;8245545;28;20369;-71
2021/08/11 12:02:38;;;;;;;5.45;2.50;;;;;;;;;;8245307;28;20411;-72
2021/08/11 12:06:45;;;;;;;5.57;1.65;;;;;;;;;;8263219;28;20497;-71
2021/08/11 12:11:02;;;;;;;2.58;1.48;;;;;;;;;;8262054;28;20428;-72
2021/08/11 12:15:21;;;;;;;3.42;1.67;;;;;;;;;;8260339;28;20371;-71
2021/08/11 12:19:26;;;;;;;3.58;2.03;;;;;;;;;;8262545;28;20326;-71
2021/08/11 12:23:34;;;;;;;4.93;1.70;;;;;;;;;;8261927;28;20480;-71
2021/08/11 12:27:39;;;;;;;3.00;1.63;;;;;;;;;;8262552;28;20383;-71
2021/08/11 12:31:45;;;;;;;2.22;1.50;;;;;;;;;;8244290;28;20410;-71
2021/08/11 12:35:52;;;;;;;2.80;1.50;;;;;;;;;;8262136;28;20170;-71
2021/08/11 12:40:00;;;;;;;2.90;1.50;;;;;;;;;;8245260;28;20048;-71
2021/08/11 12:44:26;;;;;;;3.42;1.77;;;;;;;;;;8263763;28;20464;-72
2021/08/11 12:48:34;;;;;;;3.85;1.55;;;;;;;;;;8246729;28;20478;-71
2021/08/11 12:52:40;;;;;;;3.20;1.30;;;;;;;;;;8228431;28;20337;-71
2021/08/11 12:57:00;;;;;;;3.15;1.55;;;;;;;;;;8263337;28;20444;-71
2021/08/11 13:01:05;;;;;;;2.30;1.08;;;;;;;;;;8243831;28;20091;-71
2021/08/11 13:05:13;;;;;;;2.10;1.27;;;;;;;;;;8243122;28;20367;-71
2021/08/11 13:09:25;;;;;;;2.05;1.40;;;;;;;;;;8260544;28;20074;-71
2021/08/11 13:13:32;;;;;;;2.17;1.20;;;;;;;;;;8261238;28;20420;-72
2021/08/11 13:17:54;;;;;;;2.45;1.42;;;;;;;;;;8260070;28;20456;-71
2021/08/11 13:22:02;;;;;;;2.10;1.30;;;;;;;;;;8245515;28;20045;-71
2021/08/11 13:26:06;;;;;;;1.95;1.23;;;;;;;;;;8262363;28;20490;-71
2021/08/11 13:30:11;;;;;;;2.47;1.35;;;;;;;;;;8242868;28;20351;-71
2021/08/11 13:34:17;;;;;;;4.85;1.38;;;;;;;;;;8259749;28;20048;-69
2021/08/11 13:38:22;;;;;;;3.78;1.77;;;;;;;;;;8258887;28;20490;-72
2021/08/11 13:42:27;;;;;;;2.53;1.38;;;;;;;;;;8258204;28;20487;-72
2021/08/11 13:46:34;;;;;;;3.42;1.25;;;;;;;;;;8244037;28;20468;-71
2021/08/11 13:50:39;;;;;;;4.10;1.80;;;;;;;;;;8226334;28;20383;-71
2021/08/11 13:54:45;;;;;;;2.25;1.17;;;;;;;;;;8260186;28;20379;-72
2021/08/11 13:58:50;;;;;;;9.40;1.50;;;;;;;;;;8261031;28;20352;-71
2021/08/11 14:02:55;;;;;;;2.85;1.13;;;;;;;;;;8241430;28;20383;-71
2021/08/11 14:07:04;;;;;;;5.32;1.27;;;;;;;;;;8243845;28;20041;-71
2021/08/11 14:11:09;;;;;;;2.17;1.50;;;;;;;;;;8258833;28;20363;-71
2021/08/11 14:15:14;;;;;;;2.95;1.48;;;;;;;;;;8241295;28;20495;-71
2021/08/11 14:19:20;;;;;;;6.50;2.08;;;;;;;;;;8259228;28;20368;-71
2021/08/11 14:23:25;;;;;;;2.95;1.45;;;;;;;;;;8225462;28;20476;-71
2021/08/11 14:27:30;;;;;;;2.50;1.40;;;;;;;;;;8259707;28;20484;-70
2021/08/11 14:31:35;;;;;;;2.33;1.40;;;;;;;;;;8256771;28;20460;-71
2021/08/11 14:35:41;;;;;;;4.85;1.90;;;;;;;;;;8241675;28;20356;-71
2021/08/11 14:39:46;;;;;;;3.05;1.50;;;;;;;;;;8261165;28;20341;-72
2021/08/11 14:43:51;;;;;;;7.38;1.30;;;;;;;;;;8255777;28;20388;-70
2021/08/11 14:47:56;;;;;;;3.15;1.10;;;;;;;;;;8241469;28;20669;-71
2021/08/11 14:52:02;;;;;;;3.63;1.48;;;;;;;;;;8257547;28;20399;-71
2021/08/11 14:56:10;;;;;;;4.43;1.40;;;;;;;;;;8258285;28;20372;-72
2021/08/11 15:00:15;;;;;;;2.08;1.42;;;;;;;;;;8258043;28;20383;-71
2021/08/11 15:04:21;;;;;;;4.45;1.23;;;;;;;;;;8256822;28;20486;-72
2021/08/11 15:08:26;;;;;;;3.42;1.38;;;;;;;;;;8239741;28;20364;-72
2021/08/11 15:12:31;;;;;;;2.47;1.35;;;;;;;;;;8239991;28;20510;-71
2021/08/11 15:16:36;;;;;;;2.35;1.13;;;;;;;;;;8222069;28;20480;-71
2021/08/11 15:20:42;;;;;;;3.08;1.75;;;;;;;;;;8240656;28;20368;-71
2021/08/11 15:24:48;;;;;;;2.00;1.10;;;;;;;;;;8258237;28;20475;-71
2021/08/11 15:28:53;;;;;;;4.47;1.50;;;;;;;;;;8239288;28;20450;-71
2021/08/11 15:32:59;;;;;;;3.22;1.40;;;;;;;;;;8256790;28;20352;-70
2021/08/11 15:37:05;;;;;;;5.88;1.67;;;;;;;;;;8257385;28;20403;-71
2021/08/11 15:41:11;;;;;;;3.28;1.35;;;;;;;;;;8256703;28;20419;-70
2021/08/11 15:45:16;;;;;;;2.77;1.37;;;;;;;;;;8238321;28;20467;-70
2021/08/11 15:49:21;;;;;;;4.97;1.30;;;;;;;;;;8256841;28;20351;-71
2021/08/11 15:53:26;;;;;;;1.75;1.00;;;;;;;;;;8238808;28;20378;-71
2021/08/11 15:57:32;;;;;;;2.28;1.23;;;;;;;;;;8256671;28;20368;-73
2021/08/11 16:01:37;;;;;;;2.45;1.38;;;;;;;;;;8256587;28;20456;-71
2021/08/11 16:05:42;;;;;;;1.58;0.90;;;;;;;;;;8255682;28;20468;-71
2021/08/11 16:09:47;;;;;;;2.65;1.10;;;;;;;;;;8239258;28;20052;-71
2021/08/11 16:13:53;;;;;;;2.42;1.50;;;;;;;;;;8239031;28;20516;-71
2021/08/11 16:17:58;;;;;;;3.78;1.73;;;;;;;;;;8256412;28;20471;-72
2021/08/11 16:22:04;;;;;;;2.22;1.27;;;;;;;;;;8256608;28;20053;-72
2021/08/11 16:26:09;;;;;;;7.03;1.50;;;;;;;;;;8238591;28;20341;-71
2021/08/11 16:30:18;;;;;;;1.77;1.02;;;;;;;;;;8255603;28;20380;-71
2021/08/11 16:34:23;;;;;;;1.73;1.00;;;;;;;;;;8240273;28;20324;-71
2021/08/11 16:38:29;;;;;;;2.15;1.30;;;;;;;;;;8237908;28;20368;-71
2021/08/11 16:42:34;;;;;;;3.13;1.02;;;;;;;;;;8258663;28;20361;-71
2021/08/11 16:46:39;;;;;;;2.50;1.02;;;;;;;;;;8261286;28;20045;-72
2021/08/11 16:50:44;;;;;;;2.33;1.25;;;;;;;;;;8260936;28;20418;-71
2021/08/11 16:54:49;;;;;;;1.88;1.05;;;;;;;;;;8244636;28;20487;-71
2021/08/11 16:58:54;;;;;;;2.17;1.40;;;;;;;;;;8260218;28;20063;-72
2021/08/11 17:03:00;;;;;;;2.30;1.27;;;;;;;;;;8261724;28;20045;-71
2021/08/11 17:07:05;;;;;;;2.15;1.38;;;;;;;;;;8243649;28;20468;-71
2021/08/11 17:11:11;;;;;;;2.33;1.38;;;;;;;;;;8261563;28;20456;-72
2021/08/11 17:15:16;;;;;;;3.22;1.23;;;;;;;;;;8260578;28;20059;-71
2021/08/11 17:19:21;;;;;;;2.13;1.30;;;;;;;;;;8227459;28;20372;-71
2021/08/11 17:23:27;;;;;;;1.45;1.05;;;;;;;;;;8229203;28;20338;-72
2021/08/11 17:27:32;;;;;;;1.95;1.33;;;;;;;;;;8210476;28;20380;-71
2021/08/11 17:31:37;;;;;;;3.10;1.50;;;;;;;;;;8226543;28;20499;-71
2021/08/11 17:35:43;;;;;;;5.47;1.05;;;;;;;;;;8227118;28;20334;-70
2021/08/11 17:39:48;;;;;;;2.22;1.35;;;;;;;;;;8227296;28;20038;-71
2021/08/11 17:43:54;;;;;;;2.00;1.35;;;;;;;;;;8229448;28;20483;-71
2021/08/11 17:47:59;;;;;;;2.75;1.58;;;;;;;;;;8228367;28;20337;-72
2021/08/11 17:52:05;;;;;;;7.25;1.50;;;;;;;;;;8227173;28;20372;-71
2021/08/11 17:56:10;;;;;;;2.42;1.50;;;;;;;;;;8228859;28;20445;-71
2021/08/11 18:00:15;;;;;;;3.78;1.20;;;;;;;;;;8229398;28;20368;-70
2021/08/11 18:04:20;;;;;;;2.75;1.50;;;;;;;;;;8226623;28;20457;-70
2021/08/11 18:08:25;;;;;;;2.80;1.55;;;;;;;;;;8209167;28;20503;-71
2021/08/11 18:12:31;;;;;;;3.10;1.70;;;;;;;;;;8210435;28;20456;-72
2021/08/11 18:16:36;;;;;;;1.73;1.25;;;;;;;;;;8201526;28;20471;-70
2021/08/11 18:20:45;;;;;;;21.10;8.48;;;;;;;;;;8258388;28;20368;-70
2021/08/11 18:24:51;;;;;;;30.15;18.20;;;;;;;;;;8226112;28;20356;-71
2021/08/11 18:28:56;;;;;;;49.42;26.77;;;;;;;;;;8258030;28;20464;-70
2021/08/11 18:33:02;;;;;;;44.85;27.58;;;;;;;;;;8257681;28;20368;-72
2021/08/11 18:37:08;;;;;;;33.75;21.08;;;;;;;;;;8259028;28;20029;-70
2021/08/11 18:41:15;;;;;;;44.13;22.02;;;;;;;;;;8225385;28;20044;-70
2021/08/11 18:45:20;;;;;;;24.73;14.18;;;;;;;;;;8217460;28;20352;-70
2021/08/11 18:49:25;;;;;;;67.88;25.27;;;;;;;;;;8225341;28;20349;-71
2021/08/11 18:53:30;;;;;;;103.63;40.63;;;;;;;;;;8241307;28;20364;-70
2021/08/11 18:57:36;;;;;;;82.30;32.15;;;;;;;;;;8240686;28;20045;-71
2021/08/11 19:01:41;;;;;;;41.17;18.98;;;;;;;;;;8223384;28;20487;-71
2021/08/11 19:05:47;;;;;;;14.65;6.45;;;;;;;;;;8224585;28;20357;-70
2021/08/11 19:09:52;;;;;;;23.83;9.40;;;;;;;;;;8224991;28;20377;-70
2021/08/11 19:13:57;;;;;;;44.13;13.30;;;;;;;;;;8238601;28;20484;-70
2021/08/11 19:18:03;;;;;;;41.22;13.73;;;;;;;;;;8244198;28;20487;-70
2021/08/11 19:22:10;;;;;;;46.85;16.08;;;;;;;;;;8206474;28;20072;-71
2021/08/11 19:26:16;;;;;;;29.92;12.32;;;;;;;;;;8241735;28;20075;-71
2021/08/11 19:30:22;;;;;;;33.55;10.43;;;;;;;;;;8256466;28;20497;-70
2021/08/11 19:34:30;;;;;;;28.35;8.40;;;;;;;;;;8256696;28;20364;-70
2021/08/11 19:38:35;;;;;;;24.67;8.35;;;;;;;;;;8257374;28;20460;-71
2021/08/11 19:42:40;;;;;;;47.17;13.20;;;;;;;;;;8257242;28;20041;-70
2021/08/11 19:46:50;;;;;;;38.35;13.55;;;;;;;;;;8257448;28;20333;-70
2021/08/11 19:50:53;;;;;;;33.50;12.02;;;;;;;;;;8256710;28;20487;-70
2021/08/11 19:54:58;;;;;;;19.30;7.85;;;;;;;;;;8258439;28;20439;-70
2021/08/11 19:59:03;;;;;;;21.63;9.18;;;;;;;;;;8256845;28;20356;-70
2021/08/11 20:03:09;;;;;;;14.60;8.07;;;;;;;;;;8256830;28;20507;-71
2021/08/11 20:07:16;;;;;;;9.30;4.93;;;;;;;;;;8256372;28;20372;-70
2021/08/11 20:11:22;;;;;;;6.97;3.25;;;;;;;;;;8255630;28;20395;-70
2021/08/11 20:15:27;;;;;;;9.18;2.85;;;;;;;;;;8258093;28;20487;-70
2021/08/11 20:19:33;;;;;;;4.93;2.30;;;;;;;;;;8263270;28;20359;-70
2021/08/11 20:23:38;;;;;;;4.40;2.65;;;;;;;;;;8260994;28;20484;-70
2021/08/11 20:27:45;;;;;;;6.82;2.47;;;;;;;;;;8263135;28;20338;-70
2021/08/11 20:31:50;;;;;;;6.90;2.30;;;;;;;;;;8263407;28;20494;-70
2021/08/11 20:35:55;;;;;;;2.95;2.22;;;;;;;;;;8244017;28;20399;-70
2021/08/11 20:40:01;;;;;;;2.78;2.08;;;;;;;;;;8276602;28;20065;-71
2021/08/11 20:44:06;;;;;;;5.60;2.20;;;;;;;;;;8277121;28;20333;-70
2021/08/11 20:48:11;;;;;;;4.45;2.40;;;;;;;;;;8264227;28;20379;-71
2021/08/11 20:52:16;;;;;;;4.65;2.10;;;;;;;;;;8261860;28;20484;-70
2021/08/11 20:56:21;;;;;;;3.10;2.08;;;;;;;;;;8262455;28;20383;-70
2021/08/11 21:00:27;;;;;;;5.25;3.15;;;;;;;;;;8260208;28;20364;-70
2021/08/11 21:04:33;;;;;;;5.60;2.00;;;;;;;;;;8262037;28;20462;-70
2021/08/11 21:08:38;;;;;;;5.20;1.92;;;;;;;;;;8260933;28;20371;-70
2021/08/11 21:12:43;;;;;;;4.57;2.53;;;;;;;;;;8259824;28;20456;-70
2021/08/11 21:16:49;;;;;;;3.55;2.25;;;;;;;;;;8275151;28;20406;-70
2021/08/11 21:20:54;;;;;;;4.85;2.45;;;;;;;;;;8261173;28;20475;-70
2021/08/11 21:24:59;;;;;;;3.88;2.05;;;;;;;;;;8260616;28;20056;-71
2021/08/11 21:29:05;;;;;;;7.90;1.95;;;;;;;;;;8276118;28;20368;-70
2021/08/11 21:33:11;;;;;;;5.95;2.22;;;;;;;;;;8260885;28;20387;-70
2021/08/11 21:37:16;;;;;;;12.00;2.40;;;;;;;;;;8274992;28;20464;-70
2021/08/11 21:41:21;;;;;;;4.85;2.38;;;;;;;;;;8258655;28;20472;-70
2021/08/11 21:45:27;;;;;;;3.10;1.85;;;;;;;;;;8274215;28;20045;-70
2021/08/11 21:49:32;;;;;;;6.60;2.22;;;;;;;;;;8261149;28;20053;-71
2021/08/11 21:53:37;;;;;;;4.60;2.35;;;;;;;;;;8260733;28;20510;-71
2021/08/11 21:57:42;;;;;;;3.35;2.15;;;;;;;;;;8258531;28;20483;-70
2021/08/11 22:01:48;;;;;;;3.50;2.25;;;;;;;;;;8259483;28;20361;-70
2021/08/11 22:05:53;;;;;;;7.35;2.67;;;;;;;;;;8258964;28;20044;-70
2021/08/11 22:09:58;;;;;;;5.85;2.97;;;;;;;;;;8258954;28;20472;-71
2021/08/11 22:14:04;;;;;;;5.88;2.92;;;;;;;;;;8259544;28;20063;-70
2021/08/11 22:18:09;;;;;;;3.42;2.30;;;;;;;;;;8258612;28;20372;-70
2021/08/11 22:22:14;;;;;;;9.35;2.97;;;;;;;;;;8261247;28;20455;-70
2021/08/11 22:26:19;;;;;;;4.00;2.65;;;;;;;;;;8242659;28;20367;-70
2021/08/11 22:30:24;;;;;;;5.22;2.30;;;;;;;;;;8241620;28;20079;-70
2021/08/11 22:34:30;;;;;;;4.07;2.30;;;;;;;;;;8273950;28;20067;-70
2021/08/11 22:38:36;;;;;;;4.03;2.28;;;;;;;;;;8260525;28;20456;-70
2021/08/11 22:42:41;;;;;;;8.05;2.70;;;;;;;;;;8258370;28;20460;-70
2021/08/11 22:46:46;;;;;;;4.22;2.38;;;;;;;;;;8258570;28;20380;-70
2021/08/11 22:50:52;;;;;;;4.43;2.63;;;;;;;;;;8258853;28;20487;-71
2021/08/11 22:54:57;;;;;;;3.58;2.72;;;;;;;;;;8241940;28;20364;-70
2021/08/11 22:59:04;;;;;;;3.72;2.58;;;;;;;;;;8258448;28;20399;-70
2021/08/11 23:03:09;;;;;;;7.03;3.40;;;;;;;;;;8240837;28;20040;-70
2021/08/11 23:07:14;;;;;;;12.52;3.20;;;;;;;;;;8272341;28;20044;-71
2021/08/11 23:11:21;;;;;;;12.60;3.20;;;;;;;;;;8257415;28;20352;-70
2021/08/11 23:15:26;;;;;;;5.22;2.97;;;;;;;;;;8272733;28;20367;-70
2021/08/11 23:19:32;;;;;;;7.18;3.30;;;;;;;;;;8257064;28;20430;-70
2021/08/11 23:23:37;;;;;;;8.77;3.35;;;;;;;;;;8257506;28;20041;-70
2021/08/11 23:27:42;;;;;;;5.95;3.13;;;;;;;;;;8258769;28;20379;-71
2021/08/11 23:31:47;;;;;;;6.50;2.53;;;;;;;;;;8272606;28;20476;-70
2021/08/11 23:35:53;;;;;;;7.57;2.83;;;;;;;;;;8272927;28;20059;-70
2021/08/11 23:39:58;;;;;;;5.78;2.88;;;;;;;;;;8257292;28;20484;-70
2021/08/11 23:44:03;;;;;;;6.35;3.45;;;;;;;;;;8270687;28;20079;-70
2021/08/11 23:48:09;;;;;;;4.78;2.70;;;;;;;;;;8239044;28;20474;-70
2021/08/11 23:52:13;;;;;;;4.35;3.05;;;;;;;;;;8263131;28;20452;-70
2021/08/11 23:56:19;;;;;;;5.13;3.05;;;;;;;;;;8277505;28;20371;-70
